sensor_id;sensor_type;location;lat;lon;timestamp;P1;durP1;ratioP1;P2;durP2;ratioP2
24619;SDS011;12763;55.802;37.404;2023-12-20T00:01:13;3.95;;;1.45;;
24619;SDS011;12763;55.802;37.404;2023-12-20T00:03:39;1.35;;;1.25;;
24619;SDS011;12763;55.802;37.404;2023-12-20T00:06:05;2.17;;;1.58;;
24619;SDS011;12763;55.802;37.404;2023-12-20T00:08:30;1.83;;;1.42;;
24619;SDS011;12763;55.802;37.404;2023-12-20T00:10:56;1.30;;;1.08;;
24619;SDS011;12763;55.802;37.404;2023-12-20T00:13:22;2.15;;;1.48;;
24619;SDS011;12763;55.802;37.404;2023-12-20T00:15:48;2.08;;;1.75;;
24619;SDS011;12763;55.802;37.404;2023-12-20T00:18:14;2.10;;;1.60;;
24619;SDS011;12763;55.802;37.404;2023-12-20T00:20:40;2.58;;;1.55;;
24619;SDS011;12763;55.802;37.404;2023-12-20T00:23:06;3.20;;;1.77;;
24619;SDS011;12763;55.802;37.404;2023-12-20T00:25:33;2.78;;;1.20;;
24619;SDS011;12763;55.802;37.404;2023-12-20T00:28:00;1.88;;;1.23;;
24619;SDS011;12763;55.802;37.404;2023-12-20T00:30:27;2.17;;;1.70;;
24619;SDS011;12763;55.802;37.404;2023-12-20T00:32:54;2.78;;;1.73;;
24619;SDS011;12763;55.802;37.404;2023-12-20T00:35:20;2.63;;;1.98;;
24619;SDS011;12763;55.802;37.404;2023-12-20T00:37:46;5.82;;;1.85;;
24619;SDS011;12763;55.802;37.404;2023-12-20T00:40:12;4.60;;;2.05;;
24619;SDS011;12763;55.802;37.404;2023-12-20T00:42:38;4.32;;;1.65;;
24619;SDS011;12763;55.802;37.404;2023-12-20T00:45:04;3.72;;;1.73;;
24619;SDS011;12763;55.802;37.404;2023-12-20T00:47:31;3.13;;;1.88;;
24619;SDS011;12763;55.802;37.404;2023-12-20T00:49:57;5.47;;;2.80;;
24619;SDS011;12763;55.802;37.404;2023-12-20T00:52:24;3.78;;;2.05;;
24619;SDS011;12763;55.802;37.404;2023-12-20T00:54:50;2.78;;;1.73;;
24619;SDS011;12763;55.802;37.404;2023-12-20T00:57:16;3.30;;;1.92;;
24619;SDS011;12763;55.802;37.404;2023-12-20T00:59:42;3.15;;;1.92;;
24619;SDS011;12763;55.802;37.404;2023-12-20T01:02:08;4.03;;;1.50;;
24619;SDS011;12763;55.802;37.404;2023-12-20T01:04:35;2.83;;;1.73;;
24619;SDS011;12763;55.802;37.404;2023-12-20T01:07:01;2.85;;;2.03;;
24619;SDS011;12763;55.802;37.404;2023-12-20T01:09:27;4.72;;;2.15;;
24619;SDS011;12763;55.802;37.404;2023-12-20T01:11:53;2.60;;;1.90;;
24619;SDS011;12763;55.802;37.404;2023-12-20T01:14:19;4.25;;;2.47;;
24619;SDS011;12763;55.802;37.404;2023-12-20T01:16:45;5.00;;;2.40;;
24619;SDS011;12763;55.802;37.404;2023-12-20T01:19:12;5.03;;;2.47;;
24619;SDS011;12763;55.802;37.404;2023-12-20T01:21:41;4.55;;;2.53;;
24619;SDS011;12763;55.802;37.404;2023-12-20T01:24:07;4.28;;;2.33;;
24619;SDS011;12763;55.802;37.404;2023-12-20T01:26:33;6.32;;;2.60;;
24619;SDS011;12763;55.802;37.404;2023-12-20T01:28:59;3.72;;;2.78;;
24619;SDS011;12763;55.802;37.404;2023-12-20T01:31:26;4.82;;;2.92;;
24619;SDS011;12763;55.802;37.404;2023-12-20T01:33:52;6.47;;;2.55;;
24619;SDS011;12763;55.802;37.404;2023-12-20T01:36:18;4.05;;;2.60;;
24619;SDS011;12763;55.802;37.404;2023-12-20T01:38:45;7.18;;;2.53;;
24619;SDS011;12763;55.802;37.404;2023-12-20T01:41:11;4.50;;;2.53;;
24619;SDS011;12763;55.802;37.404;2023-12-20T01:43:37;3.55;;;2.70;;
24619;SDS011;12763;55.802;37.404;2023-12-20T01:46:03;3.42;;;2.08;;
24619;SDS011;12763;55.802;37.404;2023-12-20T01:48:29;4.53;;;2.10;;
24619;SDS011;12763;55.802;37.404;2023-12-20T01:50:58;8.98;;;1.90;;
24619;SDS011;12763;55.802;37.404;2023-12-20T01:53:28;3.53;;;1.80;;
24619;SDS011;12763;55.802;37.404;2023-12-20T01:55:55;3.63;;;2.00;;
24619;SDS011;12763;55.802;37.404;2023-12-20T01:58:23;8.10;;;2.05;;
24619;SDS011;12763;55.802;37.404;2023-12-20T02:00:51;2.28;;;1.63;;
24619;SDS011;12763;55.802;37.404;2023-12-20T02:03:17;4.93;;;1.85;;
24619;SDS011;12763;55.802;37.404;2023-12-20T02:05:44;2.38;;;1.55;;
24619;SDS011;12763;55.802;37.404;2023-12-20T02:08:11;3.92;;;1.75;;
24619;SDS011;12763;55.802;37.404;2023-12-20T02:10:37;2.00;;;1.40;;
24619;SDS011;12763;55.802;37.404;2023-12-20T02:13:03;1.30;;;1.20;;
24619;SDS011;12763;55.802;37.404;2023-12-20T02:15:30;2.83;;;1.35;;
24619;SDS011;12763;55.802;37.404;2023-12-20T02:17:57;1.73;;;1.23;;
24619;SDS011;12763;55.802;37.404;2023-12-20T02:20:42;3.05;;;1.75;;
24619;SDS011;12763;55.802;37.404;2023-12-20T02:23:08;2.17;;;1.13;;
24619;SDS011;12763;55.802;37.404;2023-12-20T02:25:34;2.30;;;1.55;;
24619;SDS011;12763;55.802;37.404;2023-12-20T02:28:00;2.92;;;1.23;;
24619;SDS011;12763;55.802;37.404;2023-12-20T02:30:27;2.05;;;1.38;;
24619;SDS011;12763;55.802;37.404;2023-12-20T02:32:53;1.77;;;1.10;;
24619;SDS011;12763;55.802;37.404;2023-12-20T02:35:20;3.53;;;1.25;;
24619;SDS011;12763;55.802;37.404;2023-12-20T02:37:45;2.05;;;1.20;;
24619;SDS011;12763;55.802;37.404;2023-12-20T02:40:11;2.08;;;1.20;;
24619;SDS011;12763;55.802;37.404;2023-12-20T02:42:37;1.50;;;1.27;;
24619;SDS011;12763;55.802;37.404;2023-12-20T02:45:03;1.73;;;1.10;;
24619;SDS011;12763;55.802;37.404;2023-12-20T02:47:31;1.10;;;0.85;;
24619;SDS011;12763;55.802;37.404;2023-12-20T02:49:57;2.47;;;1.02;;
24619;SDS011;12763;55.802;37.404;2023-12-20T02:52:23;0.90;;;0.90;;
24619;SDS011;12763;55.802;37.404;2023-12-20T02:54:50;1.00;;;0.80;;
24619;SDS011;12763;55.802;37.404;2023-12-20T02:57:16;2.25;;;1.35;;
24619;SDS011;12763;55.802;37.404;2023-12-20T02:59:42;5.05;;;1.33;;
24619;SDS011;12763;55.802;37.404;2023-12-20T03:02:08;3.35;;;1.33;;
24619;SDS011;12763;55.802;37.404;2023-12-20T03:04:34;3.83;;;1.42;;
24619;SDS011;12763;55.802;37.404;2023-12-20T03:07:00;2.38;;;1.33;;
24619;SDS011;12763;55.802;37.404;2023-12-20T03:09:26;1.85;;;1.63;;
24619;SDS011;12763;55.802;37.404;2023-12-20T03:11:52;2.33;;;1.40;;
24619;SDS011;12763;55.802;37.404;2023-12-20T03:14:18;8.25;;;1.92;;
24619;SDS011;12763;55.802;37.404;2023-12-20T03:16:50;7.88;;;1.90;;
24619;SDS011;12763;55.802;37.404;2023-12-20T03:19:17;2.42;;;1.73;;
24619;SDS011;12763;55.802;37.404;2023-12-20T03:21:45;3.25;;;1.50;;
24619;SDS011;12763;55.802;37.404;2023-12-20T03:24:11;5.13;;;1.40;;
24619;SDS011;12763;55.802;37.404;2023-12-20T03:26:37;4.43;;;1.60;;
24619;SDS011;12763;55.802;37.404;2023-12-20T03:29:03;4.47;;;1.25;;
24619;SDS011;12763;55.802;37.404;2023-12-20T03:31:29;2.88;;;1.50;;
24619;SDS011;12763;55.802;37.404;2023-12-20T03:33:56;3.08;;;1.88;;
24619;SDS011;12763;55.802;37.404;2023-12-20T03:36:22;2.35;;;1.50;;
24619;SDS011;12763;55.802;37.404;2023-12-20T03:38:48;2.25;;;1.55;;
24619;SDS011;12763;55.802;37.404;2023-12-20T03:41:14;3.45;;;1.67;;
24619;SDS011;12763;55.802;37.404;2023-12-20T03:43:40;5.93;;;1.67;;
24619;SDS011;12763;55.802;37.404;2023-12-20T03:46:07;2.42;;;1.90;;
24619;SDS011;12763;55.802;37.404;2023-12-20T03:48:34;3.75;;;1.70;;
24619;SDS011;12763;55.802;37.404;2023-12-20T03:51:00;3.78;;;2.25;;
24619;SDS011;12763;55.802;37.404;2023-12-20T03:53:26;5.18;;;1.90;;
24619;SDS011;12763;55.802;37.404;2023-12-20T03:55:53;3.65;;;2.17;;
24619;SDS011;12763;55.802;37.404;2023-12-20T03:58:19;7.97;;;2.30;;
24619;SDS011;12763;55.802;37.404;2023-12-20T04:00:45;3.25;;;1.65;;
24619;SDS011;12763;55.802;37.404;2023-12-20T04:03:11;3.05;;;2.28;;
24619;SDS011;12763;55.802;37.404;2023-12-20T04:05:41;6.68;;;2.55;;
24619;SDS011;12763;55.802;37.404;2023-12-20T04:08:07;8.63;;;2.22;;
24619;SDS011;12763;55.802;37.404;2023-12-20T04:10:34;6.40;;;2.65;;
24619;SDS011;12763;55.802;37.404;2023-12-20T04:13:00;3.28;;;2.35;;
24619;SDS011;12763;55.802;37.404;2023-12-20T04:15:26;5.72;;;3.35;;
24619;SDS011;12763;55.802;37.404;2023-12-20T04:17:52;4.72;;;2.38;;
24619;SDS011;12763;55.802;37.404;2023-12-20T04:20:18;5.40;;;2.75;;
24619;SDS011;12763;55.802;37.404;2023-12-20T04:22:44;5.03;;;3.28;;
24619;SDS011;12763;55.802;37.404;2023-12-20T04:25:10;8.57;;;2.90;;
24619;SDS011;12763;55.802;37.404;2023-12-20T04:27:35;6.30;;;2.65;;
24619;SDS011;12763;55.802;37.404;2023-12-20T04:30:01;3.95;;;2.58;;
24619;SDS011;12763;55.802;37.404;2023-12-20T04:32:30;4.50;;;2.30;;
24619;SDS011;12763;55.802;37.404;2023-12-20T04:34:57;5.75;;;2.80;;
24619;SDS011;12763;55.802;37.404;2023-12-20T04:37:23;4.68;;;2.10;;
24619;SDS011;12763;55.802;37.404;2023-12-20T04:39:49;2.90;;;1.85;;
24619;SDS011;12763;55.802;37.404;2023-12-20T04:42:16;2.47;;;2.05;;
24619;SDS011;12763;55.802;37.404;2023-12-20T04:44:42;5.45;;;2.05;;
24619;SDS011;12763;55.802;37.404;2023-12-20T04:47:10;6.25;;;2.63;;
24619;SDS011;12763;55.802;37.404;2023-12-20T04:49:36;5.68;;;2.60;;
24619;SDS011;12763;55.802;37.404;2023-12-20T04:52:02;7.93;;;2.88;;
24619;SDS011;12763;55.802;37.404;2023-12-20T04:54:28;5.85;;;2.30;;
24619;SDS011;12763;55.802;37.404;2023-12-20T04:56:54;4.13;;;3.08;;
24619;SDS011;12763;55.802;37.404;2023-12-20T04:59:20;5.28;;;2.90;;
24619;SDS011;12763;55.802;37.404;2023-12-20T05:01:46;4.15;;;2.40;;
24619;SDS011;12763;55.802;37.404;2023-12-20T05:04:13;5.13;;;2.70;;
24619;SDS011;12763;55.802;37.404;2023-12-20T05:06:38;5.30;;;2.88;;
24619;SDS011;12763;55.802;37.404;2023-12-20T05:09:04;5.32;;;2.88;;
24619;SDS011;12763;55.802;37.404;2023-12-20T05:11:30;4.00;;;2.70;;
24619;SDS011;12763;55.802;37.404;2023-12-20T05:13:56;6.38;;;2.55;;
24619;SDS011;12763;55.802;37.404;2023-12-20T05:16:22;7.38;;;3.35;;
24619;SDS011;12763;55.802;37.404;2023-12-20T05:18:48;5.78;;;2.90;;
24619;SDS011;12763;55.802;37.404;2023-12-20T05:21:18;5.75;;;2.60;;
24619;SDS011;12763;55.802;37.404;2023-12-20T05:23:44;7.30;;;3.10;;
24619;SDS011;12763;55.802;37.404;2023-12-20T05:26:11;14.52;;;4.05;;
24619;SDS011;12763;55.802;37.404;2023-12-20T05:28:37;4.88;;;3.15;;
24619;SDS011;12763;55.802;37.404;2023-12-20T05:31:03;8.32;;;2.90;;
24619;SDS011;12763;55.802;37.404;2023-12-20T05:33:29;4.97;;;2.75;;
24619;SDS011;12763;55.802;37.404;2023-12-20T05:35:55;4.75;;;2.78;;
24619;SDS011;12763;55.802;37.404;2023-12-20T05:38:21;7.00;;;3.05;;
24619;SDS011;12763;55.802;37.404;2023-12-20T05:40:47;4.93;;;2.15;;
24619;SDS011;12763;55.802;37.404;2023-12-20T05:43:13;5.15;;;2.20;;
24619;SDS011;12763;55.802;37.404;2023-12-20T05:45:39;7.80;;;3.40;;
24619;SDS011;12763;55.802;37.404;2023-12-20T05:48:05;5.15;;;2.85;;
24619;SDS011;12763;55.802;37.404;2023-12-20T05:50:31;6.03;;;2.78;;
24619;SDS011;12763;55.802;37.404;2023-12-20T05:52:57;6.43;;;2.90;;
24619;SDS011;12763;55.802;37.404;2023-12-20T05:55:23;3.95;;;2.65;;
24619;SDS011;12763;55.802;37.404;2023-12-20T05:57:49;5.78;;;2.70;;
24619;SDS011;12763;55.802;37.404;2023-12-20T06:00:15;5.00;;;2.78;;
24619;SDS011;12763;55.802;37.404;2023-12-20T06:02:41;3.72;;;2.55;;
24619;SDS011;12763;55.802;37.404;2023-12-20T06:05:07;7.57;;;3.10;;
24619;SDS011;12763;55.802;37.404;2023-12-20T06:07:33;5.05;;;3.05;;
24619;SDS011;12763;55.802;37.404;2023-12-20T06:09:59;6.82;;;3.28;;
24619;SDS011;12763;55.802;37.404;2023-12-20T06:12:26;8.35;;;3.92;;
24619;SDS011;12763;55.802;37.404;2023-12-20T06:14:57;7.35;;;3.13;;
24619;SDS011;12763;55.802;37.404;2023-12-20T06:17:23;7.22;;;3.03;;
24619;SDS011;12763;55.802;37.404;2023-12-20T06:19:49;5.50;;;3.28;;
24619;SDS011;12763;55.802;37.404;2023-12-20T06:22:15;8.25;;;3.50;;
24619;SDS011;12763;55.802;37.404;2023-12-20T06:27:30;5.28;;;2.83;;
24619;SDS011;12763;55.802;37.404;2023-12-20T06:29:58;8.30;;;4.00;;
24619;SDS011;12763;55.802;37.404;2023-12-20T06:32:24;7.65;;;3.47;;
24619;SDS011;12763;55.802;37.404;2023-12-20T06:34:50;5.72;;;3.13;;
24619;SDS011;12763;55.802;37.404;2023-12-20T06:37:16;7.55;;;3.30;;
24619;SDS011;12763;55.802;37.404;2023-12-20T06:39:42;4.63;;;3.13;;
24619;SDS011;12763;55.802;37.404;2023-12-20T06:42:08;7.07;;;3.90;;
24619;SDS011;12763;55.802;37.404;2023-12-20T06:44:34;4.88;;;2.40;;
24619;SDS011;12763;55.802;37.404;2023-12-20T06:47:00;5.43;;;3.78;;
24619;SDS011;12763;55.802;37.404;2023-12-20T06:49:26;8.32;;;3.20;;
24619;SDS011;12763;55.802;37.404;2023-12-20T06:51:52;7.97;;;3.10;;
24619;SDS011;12763;55.802;37.404;2023-12-20T06:54:18;5.53;;;3.13;;
24619;SDS011;12763;55.802;37.404;2023-12-20T06:56:44;7.72;;;3.05;;
24619;SDS011;12763;55.802;37.404;2023-12-20T06:59:10;10.57;;;3.17;;
24619;SDS011;12763;55.802;37.404;2023-12-20T07:01:36;5.75;;;2.38;;
24619;SDS011;12763;55.802;37.404;2023-12-20T07:04:02;4.43;;;2.70;;
24619;SDS011;12763;55.802;37.404;2023-12-20T07:06:28;4.47;;;2.47;;
24619;SDS011;12763;55.802;37.404;2023-12-20T07:08:54;6.65;;;2.92;;
24619;SDS011;12763;55.802;37.404;2023-12-20T07:11:19;6.18;;;3.50;;
24619;SDS011;12763;55.802;37.404;2023-12-20T07:13:45;5.97;;;2.80;;
24619;SDS011;12763;55.802;37.404;2023-12-20T07:16:11;6.28;;;2.70;;
24619;SDS011;12763;55.802;37.404;2023-12-20T07:18:37;8.07;;;2.97;;
24619;SDS011;12763;55.802;37.404;2023-12-20T07:21:03;7.25;;;2.75;;
24619;SDS011;12763;55.802;37.404;2023-12-20T07:23:29;5.35;;;2.53;;
24619;SDS011;12763;55.802;37.404;2023-12-20T07:25:55;3.65;;;2.53;;
24619;SDS011;12763;55.802;37.404;2023-12-20T07:28:20;9.25;;;2.67;;
24619;SDS011;12763;55.802;37.404;2023-12-20T07:30:46;7.20;;;3.05;;
24619;SDS011;12763;55.802;37.404;2023-12-20T07:33:12;4.60;;;2.60;;
24619;SDS011;12763;55.802;37.404;2023-12-20T07:35:38;5.50;;;3.00;;
24619;SDS011;12763;55.802;37.404;2023-12-20T07:38:04;5.72;;;3.15;;
24619;SDS011;12763;55.802;37.404;2023-12-20T07:40:30;5.30;;;2.83;;
24619;SDS011;12763;55.802;37.404;2023-12-20T07:42:56;4.28;;;3.00;;
24619;SDS011;12763;55.802;37.404;2023-12-20T07:45:23;9.05;;;3.15;;
24619;SDS011;12763;55.802;37.404;2023-12-20T07:47:49;6.45;;;2.47;;
24619;SDS011;12763;55.802;37.404;2023-12-20T07:50:15;7.47;;;2.67;;
24619;SDS011;12763;55.802;37.404;2023-12-20T07:52:41;6.05;;;2.00;;
24619;SDS011;12763;55.802;37.404;2023-12-20T07:55:07;5.88;;;2.58;;
24619;SDS011;12763;55.802;37.404;2023-12-20T07:57:33;4.18;;;2.00;;
24619;SDS011;12763;55.802;37.404;2023-12-20T07:59:59;7.63;;;3.08;;
24619;SDS011;12763;55.802;37.404;2023-12-20T08:02:25;6.40;;;2.40;;
24619;SDS011;12763;55.802;37.404;2023-12-20T08:04:51;3.70;;;2.15;;
24619;SDS011;12763;55.802;37.404;2023-12-20T08:07:16;4.95;;;1.60;;
24619;SDS011;12763;55.802;37.404;2023-12-20T08:09:42;4.07;;;1.58;;
24619;SDS011;12763;55.802;37.404;2023-12-20T08:12:09;2.45;;;1.60;;
24619;SDS011;12763;55.802;37.404;2023-12-20T08:14:35;3.45;;;1.98;;
24619;SDS011;12763;55.802;37.404;2023-12-20T08:17:00;4.20;;;1.85;;
24619;SDS011;12763;55.802;37.404;2023-12-20T08:19:26;5.13;;;2.38;;
24619;SDS011;12763;55.802;37.404;2023-12-20T08:21:52;3.90;;;2.10;;
24619;SDS011;12763;55.802;37.404;2023-12-20T08:24:18;2.55;;;1.50;;
24619;SDS011;12763;55.802;37.404;2023-12-20T08:26:44;5.15;;;2.10;;
24619;SDS011;12763;55.802;37.404;2023-12-20T08:29:12;4.40;;;1.65;;
24619;SDS011;12763;55.802;37.404;2023-12-20T08:31:39;3.03;;;1.90;;
24619;SDS011;12763;55.802;37.404;2023-12-20T08:34:05;3.65;;;1.63;;
24619;SDS011;12763;55.802;37.404;2023-12-20T08:36:31;4.25;;;1.73;;
24619;SDS011;12763;55.802;37.404;2023-12-20T08:38:57;4.03;;;2.40;;
24619;SDS011;12763;55.802;37.404;2023-12-20T08:41:22;2.65;;;2.00;;
24619;SDS011;12763;55.802;37.404;2023-12-20T08:43:48;13.38;;;2.30;;
24619;SDS011;12763;55.802;37.404;2023-12-20T08:46:14;3.45;;;1.88;;
24619;SDS011;12763;55.802;37.404;2023-12-20T08:48:41;3.13;;;2.42;;
24619;SDS011;12763;55.802;37.404;2023-12-20T08:51:06;4.32;;;1.95;;
24619;SDS011;12763;55.802;37.404;2023-12-20T08:53:34;3.42;;;1.80;;
24619;SDS011;12763;55.802;37.404;2023-12-20T08:56:00;3.75;;;2.45;;
24619;SDS011;12763;55.802;37.404;2023-12-20T08:58:27;3.45;;;2.40;;
24619;SDS011;12763;55.802;37.404;2023-12-20T09:00:54;6.15;;;2.20;;
24619;SDS011;12763;55.802;37.404;2023-12-20T09:03:20;3.58;;;2.55;;
24619;SDS011;12763;55.802;37.404;2023-12-20T09:05:46;3.20;;;2.58;;
24619;SDS011;12763;55.802;37.404;2023-12-20T09:08:12;2.58;;;1.80;;
24619;SDS011;12763;55.802;37.404;2023-12-20T09:10:38;4.20;;;2.20;;
24619;SDS011;12763;55.802;37.404;2023-12-20T09:13:04;4.97;;;2.30;;
24619;SDS011;12763;55.802;37.404;2023-12-20T09:15:30;3.30;;;2.08;;
24619;SDS011;12763;55.802;37.404;2023-12-20T09:17:56;6.28;;;2.00;;
24619;SDS011;12763;55.802;37.404;2023-12-20T09:20:22;3.08;;;2.30;;
24619;SDS011;12763;55.802;37.404;2023-12-20T09:22:49;2.30;;;2.08;;
24619;SDS011;12763;55.802;37.404;2023-12-20T09:25:15;4.70;;;2.15;;
24619;SDS011;12763;55.802;37.404;2023-12-20T09:27:44;4.35;;;1.95;;
24619;SDS011;12763;55.802;37.404;2023-12-20T09:30:11;6.95;;;2.20;;
24619;SDS011;12763;55.802;37.404;2023-12-20T09:32:38;4.57;;;2.33;;
24619;SDS011;12763;55.802;37.404;2023-12-20T09:35:04;4.05;;;2.10;;
24619;SDS011;12763;55.802;37.404;2023-12-20T09:37:32;4.40;;;1.95;;
24619;SDS011;12763;55.802;37.404;2023-12-20T09:39:58;3.20;;;2.15;;
24619;SDS011;12763;55.802;37.404;2023-12-20T09:42:25;6.13;;;2.42;;
24619;SDS011;12763;55.802;37.404;2023-12-20T09:45:03;3.00;;;2.10;;
24619;SDS011;12763;55.802;37.404;2023-12-20T09:47:37;3.47;;;1.83;;
24619;SDS011;12763;55.802;37.404;2023-12-20T09:50:03;3.85;;;2.17;;
24619;SDS011;12763;55.802;37.404;2023-12-20T09:52:30;4.90;;;2.38;;
24619;SDS011;12763;55.802;37.404;2023-12-20T09:54:58;5.57;;;1.95;;
24619;SDS011;12763;55.802;37.404;2023-12-20T09:57:24;2.00;;;1.52;;
24619;SDS011;12763;55.802;37.404;2023-12-20T09:59:50;5.10;;;2.45;;
24619;SDS011;12763;55.802;37.404;2023-12-20T10:02:16;3.65;;;2.28;;
24619;SDS011;12763;55.802;37.404;2023-12-20T10:04:47;7.90;;;2.78;;
24619;SDS011;12763;55.802;37.404;2023-12-20T10:07:13;4.05;;;2.17;;
24619;SDS011;12763;55.802;37.404;2023-12-20T10:09:39;3.28;;;2.13;;
24619;SDS011;12763;55.802;37.404;2023-12-20T10:12:07;3.50;;;2.30;;
24619;SDS011;12763;55.802;37.404;2023-12-20T10:14:34;4.03;;;2.40;;
24619;SDS011;12763;55.802;37.404;2023-12-20T10:17:03;3.95;;;2.33;;
24619;SDS011;12763;55.802;37.404;2023-12-20T10:19:30;3.63;;;2.30;;
24619;SDS011;12763;55.802;37.404;2023-12-20T10:22:00;4.40;;;2.65;;
24619;SDS011;12763;55.802;37.404;2023-12-20T10:24:28;5.22;;;2.15;;
24619;SDS011;12763;55.802;37.404;2023-12-20T10:27:04;5.07;;;2.42;;
24619;SDS011;12763;55.802;37.404;2023-12-20T10:29:33;4.93;;;2.13;;
24619;SDS011;12763;55.802;37.404;2023-12-20T10:32:12;4.32;;;2.08;;
24619;SDS011;12763;55.802;37.404;2023-12-20T10:34:50;2.30;;;1.55;;
24619;SDS011;12763;55.802;37.404;2023-12-20T10:37:17;2.67;;;1.90;;
24619;SDS011;12763;55.802;37.404;2023-12-20T10:39:43;3.75;;;2.13;;
24619;SDS011;12763;55.802;37.404;2023-12-20T10:42:12;3.75;;;1.83;;
24619;SDS011;12763;55.802;37.404;2023-12-20T10:44:39;3.60;;;1.90;;
24619;SDS011;12763;55.802;37.404;2023-12-20T10:47:05;5.15;;;2.13;;
24619;SDS011;12763;55.802;37.404;2023-12-20T10:49:33;4.38;;;1.92;;
24619;SDS011;12763;55.802;37.404;2023-12-20T10:52:02;4.00;;;1.60;;
24619;SDS011;12763;55.802;37.404;2023-12-20T10:54:29;4.70;;;2.25;;
24619;SDS011;12763;55.802;37.404;2023-12-20T10:56:55;2.92;;;1.90;;
24619;SDS011;12763;55.802;37.404;2023-12-20T10:59:24;2.20;;;1.58;;
24619;SDS011;12763;55.802;37.404;2023-12-20T11:01:50;3.30;;;1.60;;
24619;SDS011;12763;55.802;37.404;2023-12-20T11:04:22;2.83;;;1.88;;
24619;SDS011;12763;55.802;37.404;2023-12-20T11:06:53;3.08;;;1.80;;
24619;SDS011;12763;55.802;37.404;2023-12-20T11:09:29;3.25;;;2.35;;
24619;SDS011;12763;55.802;37.404;2023-12-20T11:12:18;2.03;;;1.63;;
24619;SDS011;12763;55.802;37.404;2023-12-20T11:14:53;2.70;;;1.77;;
24619;SDS011;12763;55.802;37.404;2023-12-20T11:17:22;5.97;;;1.70;;
24619;SDS011;12763;55.802;37.404;2023-12-20T11:22:21;3.58;;;2.20;;
24619;SDS011;12763;55.802;37.404;2023-12-20T11:24:48;4.97;;;2.25;;
24619;SDS011;12763;55.802;37.404;2023-12-20T11:27:15;3.17;;;1.92;;
24619;SDS011;12763;55.802;37.404;2023-12-20T11:29:41;3.03;;;1.70;;
24619;SDS011;12763;55.802;37.404;2023-12-20T11:34:55;4.13;;;1.95;;
24619;SDS011;12763;55.802;37.404;2023-12-20T11:37:30;3.35;;;1.58;;
24619;SDS011;12763;55.802;37.404;2023-12-20T11:40:01;3.08;;;1.67;;
24619;SDS011;12763;55.802;37.404;2023-12-20T11:42:40;4.80;;;1.60;;
24619;SDS011;12763;55.802;37.404;2023-12-20T11:45:10;3.03;;;1.42;;
24619;SDS011;12763;55.802;37.404;2023-12-20T11:47:40;1.75;;;1.52;;
24619;SDS011;12763;55.802;37.404;2023-12-20T11:50:08;3.58;;;1.80;;
24619;SDS011;12763;55.802;37.404;2023-12-20T11:52:34;3.00;;;1.30;;
24619;SDS011;12763;55.802;37.404;2023-12-20T11:55:00;2.08;;;1.30;;
24619;SDS011;12763;55.802;37.404;2023-12-20T11:57:26;2.45;;;1.42;;
24619;SDS011;12763;55.802;37.404;2023-12-20T11:59:52;2.05;;;1.40;;
24619;SDS011;12763;55.802;37.404;2023-12-20T12:02:18;1.65;;;1.30;;
24619;SDS011;12763;55.802;37.404;2023-12-20T12:04:44;1.77;;;1.27;;
24619;SDS011;12763;55.802;37.404;2023-12-20T12:07:10;2.97;;;1.75;;
24619;SDS011;12763;55.802;37.404;2023-12-20T12:09:36;2.22;;;1.15;;
24619;SDS011;12763;55.802;37.404;2023-12-20T12:12:02;1.88;;;1.30;;
24619;SDS011;12763;55.802;37.404;2023-12-20T12:14:29;1.80;;;1.40;;
24619;SDS011;12763;55.802;37.404;2023-12-20T12:16:55;4.47;;;2.00;;
24619;SDS011;12763;55.802;37.404;2023-12-20T12:19:24;3.15;;;1.65;;
24619;SDS011;12763;55.802;37.404;2023-12-20T12:22:03;3.28;;;1.55;;
24619;SDS011;12763;55.802;37.404;2023-12-20T12:24:58;2.88;;;1.20;;
24619;SDS011;12763;55.802;37.404;2023-12-20T12:27:25;1.73;;;1.45;;
24619;SDS011;12763;55.802;37.404;2023-12-20T12:30:04;3.10;;;1.65;;
24619;SDS011;12763;55.802;37.404;2023-12-20T12:32:32;4.63;;;1.65;;
24619;SDS011;12763;55.802;37.404;2023-12-20T12:34:58;3.08;;;1.98;;
24619;SDS011;12763;55.802;37.404;2023-12-20T12:37:24;3.60;;;1.67;;
24619;SDS011;12763;55.802;37.404;2023-12-20T12:39:55;3.85;;;1.48;;
24619;SDS011;12763;55.802;37.404;2023-12-20T12:42:22;5.50;;;1.83;;
24619;SDS011;12763;55.802;37.404;2023-12-20T12:44:51;2.55;;;1.65;;
24619;SDS011;12763;55.802;37.404;2023-12-20T12:47:17;3.10;;;1.80;;
24619;SDS011;12763;55.802;37.404;2023-12-20T12:49:44;2.85;;;1.85;;
24619;SDS011;12763;55.802;37.404;2023-12-20T12:52:09;5.53;;;2.00;;
24619;SDS011;12763;55.802;37.404;2023-12-20T12:54:36;3.63;;;1.83;;
24619;SDS011;12763;55.802;37.404;2023-12-20T12:57:03;3.80;;;1.75;;
24619;SDS011;12763;55.802;37.404;2023-12-20T12:59:29;3.40;;;1.75;;
24619;SDS011;12763;55.802;37.404;2023-12-20T13:01:55;3.35;;;1.63;;
24619;SDS011;12763;55.802;37.404;2023-12-20T13:04:21;6.55;;;2.08;;
24619;SDS011;12763;55.802;37.404;2023-12-20T13:06:47;3.35;;;2.03;;
24619;SDS011;12763;55.802;37.404;2023-12-20T13:09:12;6.72;;;2.38;;
24619;SDS011;12763;55.802;37.404;2023-12-20T13:11:39;7.10;;;2.63;;
24619;SDS011;12763;55.802;37.404;2023-12-20T13:14:05;2.50;;;1.48;;
24619;SDS011;12763;55.802;37.404;2023-12-20T13:16:31;4.18;;;1.60;;
24619;SDS011;12763;55.802;37.404;2023-12-20T13:18:57;2.50;;;1.88;;
24619;SDS011;12763;55.802;37.404;2023-12-20T13:21:25;4.25;;;1.80;;
24619;SDS011;12763;55.802;37.404;2023-12-20T13:23:51;4.65;;;1.60;;
24619;SDS011;12763;55.802;37.404;2023-12-20T13:26:17;2.30;;;1.60;;
24619;SDS011;12763;55.802;37.404;2023-12-20T13:28:43;3.08;;;1.50;;
24619;SDS011;12763;55.802;37.404;2023-12-20T13:31:09;8.90;;;1.92;;
24619;SDS011;12763;55.802;37.404;2023-12-20T13:33:35;1.67;;;1.40;;
24619;SDS011;12763;55.802;37.404;2023-12-20T13:36:01;2.97;;;1.92;;
24619;SDS011;12763;55.802;37.404;2023-12-20T13:38:27;2.90;;;1.85;;
24619;SDS011;12763;55.802;37.404;2023-12-20T13:40:53;4.78;;;2.50;;
24619;SDS011;12763;55.802;37.404;2023-12-20T13:43:19;6.82;;;2.00;;
24619;SDS011;12763;55.802;37.404;2023-12-20T13:45:47;4.15;;;2.05;;
24619;SDS011;12763;55.802;37.404;2023-12-20T13:48:13;5.15;;;2.67;;
24619;SDS011;12763;55.802;37.404;2023-12-20T13:50:39;3.80;;;2.30;;
24619;SDS011;12763;55.802;37.404;2023-12-20T13:53:05;2.83;;;1.80;;
24619;SDS011;12763;55.802;37.404;2023-12-20T13:55:31;3.28;;;2.05;;
24619;SDS011;12763;55.802;37.404;2023-12-20T13:57:57;2.83;;;1.90;;
24619;SDS011;12763;55.802;37.404;2023-12-20T14:00:23;3.38;;;1.95;;
24619;SDS011;12763;55.802;37.404;2023-12-20T14:02:49;2.58;;;1.75;;
24619;SDS011;12763;55.802;37.404;2023-12-20T14:05:15;6.70;;;2.40;;
24619;SDS011;12763;55.802;37.404;2023-12-20T14:07:43;5.63;;;2.90;;
24619;SDS011;12763;55.802;37.404;2023-12-20T14:10:11;4.90;;;2.72;;
24619;SDS011;12763;55.802;37.404;2023-12-20T14:12:39;5.80;;;2.60;;
24619;SDS011;12763;55.802;37.404;2023-12-20T14:15:06;4.63;;;2.35;;
24619;SDS011;12763;55.802;37.404;2023-12-20T14:17:37;3.90;;;2.70;;
24619;SDS011;12763;55.802;37.404;2023-12-20T14:20:05;7.47;;;2.67;;
24619;SDS011;12763;55.802;37.404;2023-12-20T14:22:32;3.92;;;2.45;;
24619;SDS011;12763;55.802;37.404;2023-12-20T14:24:58;5.60;;;2.25;;
24619;SDS011;12763;55.802;37.404;2023-12-20T14:27:24;4.57;;;2.75;;
24619;SDS011;12763;55.802;37.404;2023-12-20T14:29:53;3.20;;;2.20;;
24619;SDS011;12763;55.802;37.404;2023-12-20T14:32:20;3.33;;;1.92;;
24619;SDS011;12763;55.802;37.404;2023-12-20T14:34:46;2.92;;;1.85;;
24619;SDS011;12763;55.802;37.404;2023-12-20T14:37:12;3.92;;;2.20;;
24619;SDS011;12763;55.802;37.404;2023-12-20T14:39:38;3.83;;;2.17;;